Time;durP1;ratioP1;P1;durP2;ratioP2;P2;SDS_P1;SDS_P2;PMS_P1;PMS_P2;Temp;Humidity;BMP_temperature;BMP_pressure;BME280_temperature;BME280_humidity;BME280_pressure;Samples;Min_cycle;Max_cycle;Signal;HPM_P1;HPM_P2
2021/03/09 00:00:29;;;;;;;1.80;0.80;;;;;;;-1.82;65.15;101515.34;5048343;28;20566;-66
2021/03/09 00:02:59;;;;;;;0.70;0.53;;;;;;;-1.83;64.97;101507.44;5052637;28;20262;-67
2021/03/09 00:05:26;;;;;;;3.17;1.37;;;;;;;-1.84;65.40;101510.94;5051991;28;20195;-67
2021/03/09 00:07:54;;;;;;;0.63;0.63;;;;;;;-2.02;65.78;101477.69;5048351;28;20695;-67
2021/03/09 00:10:22;;;;;;;1.10;1.00;;;;;;;-1.87;65.17;101507.44;5051869;28;20685;-67
2021/03/09 00:12:49;;;;;;;3.73;0.50;;;;;;;-1.87;65.26;101510.06;5050561;28;20689;-67
2021/03/09 00:15:16;;;;;;;1.03;0.63;;;;;;;-1.86;64.82;101503.03;5049735;28;20221;-66
2021/03/09 00:17:43;;;;;;;1351.93;434.30;;;;;;;-1.86;64.70;101503.03;5052774;28;20194;-67
2021/03/09 00:20:11;;;;;;;218.53;69.47;;;;;;;-1.85;65.24;101493.38;5050024;28;20256;-67
2021/03/09 00:22:41;;;;;;;13.13;5.30;;;;;;;-1.94;65.26;101478.53;5054659;28;20565;-67
2021/03/09 00:25:11;;;;;;;8.10;4.40;;;;;;;-1.81;65.29;101496.03;5037517;28;20559;-67
2021/03/09 00:27:38;;;;;;;4.93;2.50;;;;;;;-1.75;66.36;101488.09;5053349;28;20230;-67
2021/03/09 00:30:06;;;;;;;5.07;3.07;;;;;;;-1.71;65.78;101488.94;5049338;28;20280;-67
2021/03/09 00:32:33;;;;;;;4.97;2.20;;;;;;;-1.70;65.69;101482.78;5052443;28;20237;-67
2021/03/09 00:35:01;;;;;;;3.30;1.60;;;;;;;-1.64;65.69;101483.63;5047758;28;20215;-67
2021/03/09 00:37:28;;;;;;;3.03;1.10;;;;;;;-1.63;65.65;101480.09;5052759;28;20676;-66
2021/03/09 00:39:55;;;;;;;2.30;1.00;;;;;;;-1.63;65.80;101488.00;5057890;28;20720;-67
2021/03/09 00:42:23;;;;;;;5.57;3.30;;;;;;;-1.61;65.60;101478.34;5069728;28;20198;-67
2021/03/09 00:44:50;;;;;;;5.53;2.50;;;;;;;-1.59;65.47;101480.97;5065776;28;20183;-66
2021/03/09 00:47:17;;;;;;;4.93;1.80;;;;;;;-1.63;65.35;101474.84;5048740;28;20209;-67
2021/03/09 00:49:45;;;;;;;1.63;1.10;;;;;;;-1.93;65.68;101441.69;5066721;28;20203;-67
2021/03/09 00:52:12;;;;;;;10.30;6.27;;;;;;;-1.67;65.75;101478.38;5064269;28;20196;-67
2021/03/09 00:54:39;;;;;;;13.10;6.93;;;;;;;-1.70;65.03;101470.50;5072101;28;20193;-67
2021/03/09 00:57:07;;;;;;;4.57;1.63;;;;;;;-1.70;66.08;101467.88;5058584;28;20205;-67
2021/03/09 00:59:35;;;;;;;3.93;1.10;;;;;;;-1.66;66.15;101463.47;5072164;28;20190;-67
2021/03/09 01:02:03;;;;;;;4.70;1.70;;;;;;;-1.64;66.35;101465.19;5070259;28;20197;-66
2021/03/09 01:04:30;;;;;;;0.70;0.70;;;;;;;-1.64;66.31;101456.44;5056891;28;20284;-66
2021/03/09 01:06:57;;;;;;;1.60;0.90;;;;;;;-1.67;65.89;101456.44;5058488;28;20223;-66
2021/03/09 01:09:24;;;;;;;1.87;1.50;;;;;;;-1.68;66.33;101452.94;5072198;28;20220;-67
2021/03/09 01:11:51;;;;;;;0.63;0.60;;;;;;;-1.71;66.16;101442.44;5066263;28;20271;-67
2021/03/09 01:14:19;;;;;;;1.50;0.90;;;;;;;-1.82;66.63;101425.84;5071165;28;20664;-67
2021/03/09 01:16:47;;;;;;;4.07;0.97;;;;;;;-1.74;66.16;101429.28;5063520;28;20221;-66
2021/03/09 01:19:14;;;;;;;1.97;0.73;;;;;;;-1.74;66.36;101431.06;5072081;28;20639;-66
2021/03/09 01:21:41;;;;;;;2.63;2.13;;;;;;;-1.79;66.36;101433.72;5069487;28;20308;-66
2021/03/09 01:24:09;;;;;;;0.80;0.80;;;;;;;-1.83;65.99;101439.88;5065923;28;20653;-67
2021/03/09 01:26:36;;;;;;;2.00;0.50;;;;;;;-1.85;66.17;101430.22;5071632;28;20231;-66
2021/03/09 01:29:03;;;;;;;0.83;0.60;;;;;;;-1.84;66.97;101422.31;5071580;28;20221;-67
2021/03/09 01:31:30;;;;;;;0.50;0.47;;;;;;;-1.87;67.09;101420.59;5070805;28;20206;-67
2021/03/09 01:33:58;;;;;;;1.60;0.97;;;;;;;-1.87;67.62;101414.44;5069898;28;20203;-67
2021/03/09 01:36:26;;;;;;;0.70;0.53;;;;;;;-2.11;66.23;101376.03;5069946;28;20221;-67
2021/03/09 01:38:53;;;;;;;5.33;1.30;;;;;;;-1.90;66.96;101409.19;5057009;28;20201;-67
2021/03/09 01:41:20;;;;;;;0.80;0.70;;;;;;;-2.09;68.21;101376.00;5066032;28;20669;-67
2021/03/09 01:43:47;;;;;;;0.93;0.50;;;;;;;-1.85;68.43;101409.16;5059254;28;20232;-67
2021/03/09 01:46:15;;;;;;;0.73;0.50;;;;;;;-1.90;67.72;101401.31;5055598;28;20205;-67
2021/03/09 01:48:45;;;;;;;0.40;0.40;;;;;;;-1.89;67.77;101397.78;5071001;28;20752;-67
2021/03/09 01:51:15;;;;;;;0.93;0.50;;;;;;;-1.94;67.06;101389.06;5066955;28;20201;-67
2021/03/09 01:53:43;;;;;;;5.80;1.17;;;;;;;-2.42;68.10;101309.56;5050832;28;20218;-67
2021/03/09 01:56:11;;;;;;;0.50;0.50;;;;;;;-1.99;67.62;101386.47;5051826;28;20300;-67
2021/03/09 01:58:42;;;;;;;2.47;0.80;;;;;;;-2.00;67.33;101381.22;5063158;28;20212;-67
2021/03/09 02:01:09;;;;;;;0.80;0.67;;;;;;;-2.25;67.59;101338.38;5062593;28;20255;-67
2021/03/09 02:03:36;;;;;;;0.90;0.70;;;;;;;-2.07;67.12;101374.25;5071652;28;20569;-67
2021/03/09 02:06:04;;;;;;;4.93;1.53;;;;;;;-2.07;68.03;101366.34;5050381;28;20225;-67
2021/03/09 02:08:33;;;;;;;0.50;0.40;;;;;;;-2.07;67.93;101372.47;5066747;28;20228;-67
2021/03/09 02:11:03;;;;;;;0.37;0.37;;;;;;;-2.14;67.19;101359.34;5058707;28;20812;-67
2021/03/09 02:13:44;;;;;;;0.63;0.50;;;;;;;-2.11;67.38;101359.38;5054274;28;20202;-67
2021/03/09 02:16:17;;;;;;;32.93;18.37;;;;;;;-2.23;67.26;101334.84;5055842;28;20688;-67
2021/03/09 02:19:12;;;;;;;128.23;40.07;;;;;;;-2.09;67.26;101349.69;5050975;28;20275;-67
2021/03/09 02:21:58;;;;;;;22.93;8.00;;;;;;;-2.24;67.93;101325.22;5067286;28;20208;-67
2021/03/09 02:24:59;;;;;;;6.17;2.20;;;;;;;-2.06;67.28;101350.56;5056494;28;20206;-67
2021/03/09 02:27:43;;;;;;;1.07;1.07;;;;;;;-2.08;67.41;101344.44;5060161;28;20231;-67
2021/03/09 02:30:24;;;;;;;9.83;2.00;;;;;;;-2.04;67.10;101345.28;5064221;28;20201;-67
2021/03/09 02:33:00;;;;;;;1.03;0.93;;;;;;;-2.00;67.63;101347.00;5064294;28;20643;-67
2021/03/09 02:35:29;;;;;;;1.73;0.90;;;;;;;-2.01;67.15;101332.09;5057267;28;20212;-68
2021/03/09 02:38:01;;;;;;;5.30;2.10;;;;;;;-1.99;67.69;101331.22;5062370;28;20313;-68
2021/03/09 02:40:29;;;;;;;2.60;0.97;;;;;;;-1.94;67.20;101345.19;5069625;28;20284;-68
2021/03/09 02:43:02;;;;;;;1.97;1.00;;;;;;;-1.96;67.29;101333.81;5063401;28;20197;-67
2021/03/09 02:45:31;;;;;;;1.07;0.93;;;;;;;-1.97;67.02;101339.09;5058277;28;20204;-67
2021/03/09 02:48:01;;;;;;;1.17;1.07;;;;;;;-1.99;67.11;101327.69;5067839;28;20185;-67
2021/03/09 02:50:29;;;;;;;1.00;1.00;;;;;;;-2.06;67.52;101323.38;5070461;28;20201;-67
2021/03/09 02:53:01;;;;;;;1.80;0.97;;;;;;;-2.07;67.23;101324.25;5046459;28;20225;-67
2021/03/09 02:55:29;;;;;;;0.97;0.70;;;;;;;-2.15;67.14;101299.75;5059884;28;20252;-68
2021/03/09 02:57:57;;;;;;;0.63;0.50;;;;;;;-2.13;67.83;101309.41;5055635;28;20201;-67
2021/03/09 03:00:25;;;;;;;0.50;0.50;;;;;;;-2.26;67.69;101297.19;5070213;28;20208;-67
2021/03/09 03:02:54;;;;;;;1.30;0.87;;;;;;;-2.20;67.73;101308.53;5051527;28;20205;-68
2021/03/09 03:05:23;;;;;;;0.70;0.70;;;;;;;-2.23;67.93;101308.56;5049232;28;20611;-67
2021/03/09 03:07:52;;;;;;;1.63;1.00;;;;;;;-2.22;67.95;101310.31;5061099;28;20636;-67
2021/03/09 03:10:20;;;;;;;0.60;0.60;;;;;;;-2.46;68.23;101265.75;5069658;28;20665;-67
2021/03/09 03:12:49;;;;;;;5.90;0.60;;;;;;;-2.21;68.20;101304.16;5069709;28;20234;-67
2021/03/09 03:15:20;;;;;;;0.80;0.77;;;;;;;-2.20;68.47;101297.13;5061381;28;20300;-67
2021/03/09 03:17:48;;;;;;;0.37;0.37;;;;;;;-2.22;68.35;101298.91;5068863;28;20202;-67
2021/03/09 03:20:19;;;;;;;2.07;1.10;;;;;;;-2.23;68.17;101292.78;5063014;28;20280;-67
2021/03/09 03:22:49;;;;;;;1.40;0.53;;;;;;;-2.24;68.13;101296.28;5066034;28;20208;-67
2021/03/09 03:25:17;;;;;;;0.30;0.30;;;;;;;-2.22;69.26;101288.38;5057064;28;20189;-67
2021/03/09 03:27:47;;;;;;;0.77;0.60;;;;;;;-2.20;68.57;101290.13;5066161;28;20237;-68
2021/03/09 03:30:17;;;;;;;0.40;0.40;;;;;;;-2.43;68.40;101252.63;5068965;28;20247;-67
2021/03/09 03:32:46;;;;;;;1.63;0.50;;;;;;;-2.42;68.10;101270.13;5068489;28;20205;-67
2021/03/09 03:35:15;;;;;;;0.47;0.33;;;;;;;-2.21;68.25;101291.00;5051375;28;20201;-67
2021/03/09 03:37:44;;;;;;;0.30;0.30;;;;;;;-2.23;68.55;101278.75;5062889;28;20209;-67
2021/03/09 03:40:14;;;;;;;0.87;0.53;;;;;;;-2.24;68.16;101279.63;5060769;28;20215;-67
2021/03/09 03:42:42;;;;;;;0.97;0.83;;;;;;;-2.20;68.84;101276.97;5065788;28;20244;-68
2021/03/09 03:45:11;;;;;;;0.47;0.47;;;;;;;-2.21;68.30;101272.59;5059155;28;20247;-67
2021/03/09 03:47:40;;;;;;;1.97;0.40;;;;;;;-2.21;68.30;101269.09;5066086;28;20216;-67
2021/03/09 03:50:14;;;;;;;1.23;0.60;;;;;;;-2.32;68.25;101240.25;5060816;28;20708;-67
2021/03/09 03:52:51;;;;;;;1.10;0.70;;;;;;;-2.30;67.74;101243.75;5062604;28;20263;-67
2021/03/09 03:55:39;;;;;;;0.80;0.80;;;;;;;-2.19;67.39;101256.81;5060198;28;20181;-67
2021/03/09 03:58:14;;;;;;;0.50;0.43;;;;;;;-2.19;67.59;101247.16;5066796;28;20205;-68
2021/03/09 04:00:41;;;;;;;0.30;0.30;;;;;;;-2.15;67.87;101249.75;5063560;28;20221;-68
2021/03/09 04:03:12;;;;;;;0.80;0.47;;;;;;;-2.16;67.38;101253.28;5061924;28;20198;-67
2021/03/09 04:05:44;;;;;;;1.20;0.43;;;;;;;-2.13;67.67;101241.00;5060882;28;20229;-67
2021/03/09 04:08:13;;;;;;;7.20;0.50;;;;;;;-2.08;67.46;101243.59;5068431;28;20209;-67
2021/03/09 04:10:42;;;;;;;1.77;1.53;;;;;;;-2.04;67.83;101240.91;5063018;28;20967;-67
2021/03/09 04:13:12;;;;;;;294.43;99.57;;;;;;;-2.01;68.03;101234.75;5068960;28;20722;-67
2021/03/09 04:15:39;;;;;;;23.70;8.00;;;;;;;-1.95;68.21;101232.06;5060996;28;20283;-67
2021/03/09 04:18:09;;;;;;;5.07;2.77;;;;;;;-1.91;68.32;101225.88;5060455;28;20347;-67
2021/03/09 04:20:41;;;;;;;2.83;2.10;;;;;;;-1.79;68.30;101219.66;5066406;28;20201;-67
2021/03/09 04:23:13;;;;;;;6.20;1.27;;;;;;;-1.66;68.89;101219.50;5064503;28;20208;-67
2021/03/09 04:25:42;;;;;;;3.70;1.03;;;;;;;-1.60;68.67;101223.84;5051509;28;20538;-67
2021/03/09 04:28:10;;;;;;;2.07;0.87;;;;;;;-1.93;67.51;101165.38;5061050;28;20201;-67
2021/03/09 04:30:38;;;;;;;3.30;1.47;;;;;;;-1.53;67.84;101211.47;5071366;28;20562;-67
2021/03/09 04:33:06;;;;;;;0.60;0.60;;;;;;;-1.49;67.40;101208.81;5059515;28;20209;-67
2021/03/09 04:35:34;;;;;;;0.80;0.80;;;;;;;-1.39;67.45;101207.81;5066618;28;20406;-66
2021/03/09 04:38:01;;;;;;;0.60;0.60;;;;;;;-1.31;67.76;101202.44;5072442;28;20742;-67
2021/03/09 04:40:30;;;;;;;0.93;0.70;;;;;;;-1.29;67.50;101200.66;5050887;28;20197;-66
2021/03/09 04:42:57;;;;;;;23.63;15.93;;;;;;;-1.56;67.22;101143.91;5051389;28;20642;-67
2021/03/09 04:45:25;;;;;;;8.80;1.97;;;;;;;-1.22;67.66;101190.91;5057414;28;20829;-67
2021/03/09 04:47:53;;;;;;;1.03;0.97;;;;;;;-1.12;68.00;101197.84;5073123;28;21059;-67
2021/03/09 04:50:21;;;;;;;0.50;0.50;;;;;;;-1.16;66.19;101191.75;5059844;28;20608;-67
2021/03/09 04:52:49;;;;;;;1.00;0.90;;;;;;;-1.09;66.95;101190.75;5071181;28;20201;-66
2021/03/09 04:55:20;;;;;;;0.60;0.50;;;;;;;-1.12;66.94;101193.44;5055835;28;20206;-67
2021/03/09 04:57:49;;;;;;;0.60;0.60;;;;;;;-1.11;66.08;101191.69;5055173;28;20665;-67
2021/03/09 05:00:19;;;;;;;0.87;0.60;;;;;;;-1.06;66.83;101197.75;5044440;28;20238;-67
2021/03/09 05:02:47;;;;;;;4.47;0.63;;;;;;;-1.01;67.39;101198.56;5059509;28;20573;-67
2021/03/09 05:05:16;;;;;;;1.23;1.10;;;;;;;-0.98;67.73;101207.28;5059669;28;20219;-66
2021/03/09 05:07:43;;;;;;;0.50;0.50;;;;;;;-0.99;66.93;101200.28;5057460;28;20202;-67
2021/03/09 05:10:12;;;;;;;0.80;0.80;;;;;;;-0.94;67.65;101202.84;5056093;28;20649;-68
2021/03/09 05:12:41;;;;;;;1.70;0.50;;;;;;;-1.01;66.16;101196.78;5068411;28;20202;-68
2021/03/09 05:15:10;;;;;;;0.83;0.50;;;;;;;-1.39;66.41;101117.41;5067333;28;20284;-68
2021/03/09 05:17:38;;;;;;;1.70;0.70;;;;;;;-0.90;66.73;101193.16;5063394;28;20696;-68
2021/03/09 05:20:08;;;;;;;0.27;0.27;;;;;;;-0.83;67.22;101184.28;5058243;28;20700;-68
2021/03/09 05:22:35;;;;;;;0.47;0.33;;;;;;;-1.08;66.66;101150.34;5064385;28;20198;-68
2021/03/09 05:25:03;;;;;;;1.23;0.50;;;;;;;-0.80;66.83;101187.72;5063965;28;20194;-67
2021/03/09 05:27:30;;;;;;;0.83;0.27;;;;;;;-0.85;65.47;101189.56;5068200;28;20587;-68
2021/03/09 05:29:58;;;;;;;0.40;0.33;;;;;;;-0.84;65.47;101187.81;5065087;28;20731;-67
2021/03/09 05:32:26;;;;;;;1.30;0.33;;;;;;;-0.85;66.28;101183.44;5054120;28;20197;-66
2021/03/09 05:34:53;;;;;;;0.40;0.40;;;;;;;-0.79;66.91;101184.22;5066910;28;20199;-68
2021/03/09 05:37:20;;;;;;;1.13;0.60;;;;;;;-0.97;67.02;101156.31;5061299;28;20588;-68
2021/03/09 05:39:47;;;;;;;0.50;0.50;;;;;;;-0.74;67.34;101194.69;5062327;28;20590;-68
2021/03/09 05:42:16;;;;;;;0.43;0.43;;;;;;;-1.03;67.67;101139.72;5061456;28;20197;-68
2021/03/09 05:44:46;;;;;;;0.20;0.20;;;;;;;-0.70;67.45;101191.09;5060434;28;20679;-68
2021/03/09 05:47:13;;;;;;;0.93;0.53;;;;;;;-0.80;67.81;101161.38;5065702;28;20194;-68
2021/03/09 05:49:46;;;;;;;4.80;0.50;;;;;;;-0.61;67.31;101191.00;5062981;28;20206;-68
2021/03/09 05:52:16;;;;;;;0.30;0.30;;;;;;;-0.66;67.01;101192.78;5059492;28;20199;-68
2021/03/09 05:54:43;;;;;;;0.37;0.23;;;;;;;-0.57;67.68;101187.41;5058554;28;20554;-68
2021/03/09 05:57:11;;;;;;;0.93;0.70;;;;;;;-0.53;67.63;101173.28;5058161;28;20918;-68
2021/03/09 05:59:38;;;;;;;1.37;0.47;;;;;;;-0.54;67.40;101176.81;5041547;28;20209;-68
2021/03/09 06:02:07;;;;;;;0.37;0.37;;;;;;;-0.56;66.79;101172.47;5063368;28;20223;-67
2021/03/09 06:04:35;;;;;;;7.33;0.30;;;;;;;-0.52;67.03;101177.66;5064587;28;20255;-67
2021/03/09 06:07:04;;;;;;;65.87;41.07;;;;;;;-0.69;66.81;101143.63;5064781;28;20275;-67
2021/03/09 06:09:39;;;;;;;14.67;6.03;;;;;;;-0.41;67.18;101177.47;5066572;28;20681;-67
2021/03/09 06:12:15;;;;;;;3.37;2.17;;;;;;;-0.61;67.35;101138.25;5068276;28;20268;-67
2021/03/09 06:14:44;;;;;;;1.07;0.87;;;;;;;-0.47;66.58;101165.25;5064833;28;20194;-67
2021/03/09 06:17:23;;;;;;;9.70;5.57;;;;;;;-0.34;66.86;101172.06;5061068;28;20558;-67
2021/03/09 06:20:20;;;;;;;2.17;1.07;;;;;;;-0.19;66.71;101172.72;5061863;28;20190;-67
2021/03/09 06:22:50;;;;;;;9.80;1.70;;;;;;;-0.08;67.32;101165.50;5061176;28;20208;-67
2021/03/09 06:25:19;;;;;;;1.23;1.20;;;;;;;0.05;67.63;101172.31;5066057;28;20276;-66
2021/03/09 06:27:47;;;;;;;25.40;1.30;;;;;;;0.11;67.08;101171.31;5067599;28;20253;-67
2021/03/09 06:30:26;;;;;;;6.80;0.60;;;;;;;0.20;67.19;101160.59;5065129;28;20219;-67
2021/03/09 06:32:54;;;;;;;0.70;0.70;;;;;;;0.29;66.75;101169.19;5064289;28;20237;-66
2021/03/09 06:35:33;;;;;;;0.87;0.87;;;;;;;0.38;66.13;101172.59;5066735;28;20720;-66
2021/03/09 06:38:21;;;;;;;1.47;0.70;;;;;;;0.38;66.71;101164.66;5066816;28;20194;-67
2021/03/09 06:41:12;;;;;;;0.40;0.40;;;;;;;0.44;66.01;101169.81;5062312;28;20199;-67
2021/03/09 06:43:41;;;;;;;0.80;0.80;;;;;;;0.50;66.50;101161.78;5063671;28;20219;-66
2021/03/09 06:46:17;;;;;;;0.80;0.80;;;;;;;0.54;66.84;101163.44;5065494;28;20220;-66
2021/03/09 06:48:46;;;;;;;3.93;0.60;;;;;;;0.37;65.75;101139.16;5064874;28;20215;-66
2021/03/09 06:51:27;;;;;;;1.60;1.50;;;;;;;0.57;66.58;101150.19;5067698;28;20735;-66
2021/03/09 06:54:03;;;;;;;1.80;0.60;;;;;;;0.67;66.46;101151.75;5067322;28;20201;-66
2021/03/09 06:56:30;;;;;;;0.40;0.40;;;;;;;0.68;65.94;101142.91;5067711;28;20219;-66
2021/03/09 06:59:17;;;;;;;0.57;0.57;;;;;;;0.74;66.20;101149.84;5065217;28;20205;-66
2021/03/09 07:02:03;;;;;;;0.90;0.67;;;;;;;0.81;65.94;101144.38;5068695;28;20308;-68
2021/03/09 07:04:31;;;;;;;1.70;0.50;;;;;;;0.84;65.03;101151.38;5067316;28;20211;-67
2021/03/09 07:06:58;;;;;;;0.20;0.20;;;;;;;0.89;64.86;101147.72;5068911;28;20302;-67
2021/03/09 07:09:27;;;;;;;0.63;0.50;;;;;;;0.98;65.49;101145.81;5068196;28;20549;-67
2021/03/09 07:11:55;;;;;;;0.67;0.67;;;;;;;0.87;64.03;101131.03;5067539;28;20201;-67
2021/03/09 07:14:23;;;;;;;1.30;0.63;;;;;;;1.01;65.30;101125.47;5068961;28;20194;-67
2021/03/09 07:16:53;;;;;;;0.87;0.30;;;;;;;1.08;64.93;101148.22;5062525;28;20568;-67
2021/03/09 07:19:25;;;;;;;0.53;0.53;;;;;;;1.14;65.48;101153.34;5078316;28;20294;-67
2021/03/09 07:21:53;;;;;;;0.53;0.40;;;;;;;1.04;65.39;101146.53;5062842;28;20523;-68
2021/03/09 07:24:22;;;;;;;0.47;0.47;;;;;;;0.80;65.39;101104.78;5068241;28;20199;-68
2021/03/09 07:26:55;;;;;;;0.80;0.50;;;;;;;0.96;65.12;101105.31;5049697;28;20231;-67
2021/03/09 07:29:27;;;;;;;6.47;0.47;;;;;;;1.20;65.36;101147.06;5059300;28;20206;-67
2021/03/09 07:31:56;;;;;;;1.53;0.70;;;;;;;0.95;65.32;101109.75;5053461;28;20262;-67
2021/03/09 07:34:26;;;;;;;1.50;0.40;;;;;;;1.08;65.72;101132.34;5031278;28;20261;-67
2021/03/09 07:36:55;;;;;;;0.40;0.40;;;;;;;1.06;65.43;101128.00;5049745;28;20228;-67
2021/03/09 07:39:24;;;;;;;1.50;0.60;;;;;;;0.95;65.78;101108.88;5057171;28;20558;-66
2021/03/09 07:41:53;;;;;;;0.53;0.40;;;;;;;1.11;66.43;101141.97;5041085;28;20200;-65
2021/03/09 07:44:20;;;;;;;1.27;0.80;;;;;;;1.12;66.80;101143.72;5056594;28;20287;-65
2021/03/09 07:46:48;;;;;;;0.53;0.50;;;;;;;1.15;66.39;101143.66;5057248;28;20223;-65
2021/03/09 07:49:15;;;;;;;0.40;0.40;;;;;;;1.20;66.50;101144.41;5055414;28;20300;-66
2021/03/09 07:52:20;;;;;;;2.60;0.60;;;;;;;1.19;67.72;101137.38;5053755;28;20200;-66
2021/03/09 07:55:18;;;;;;;0.70;0.70;;;;;;;1.17;67.72;101140.06;5051797;28;20303;-66
2021/03/09 07:57:46;;;;;;;4.77;1.80;;;;;;;1.14;68.07;101133.97;5054047;28;20727;-66
2021/03/09 08:00:14;;;;;;;231.33;86.80;;;;;;;1.26;66.59;101131.06;5049628;28;20279;-65
2021/03/09 08:02:54;;;;;;;30.33;9.83;;;;;;;1.29;66.87;101114.25;5050952;28;20234;-66
2021/03/09 08:05:23;;;;;;;17.97;7.40;;;;;;;1.11;67.19;101078.50;5051924;28;20199;-66
2021/03/09 08:07:53;;;;;;;1.90;1.73;;;;;;;1.46;67.01;101122.63;5036032;28;20218;-66
2021/03/09 08:10:43;;;;;;;6.53;1.83;;;;;;;1.51;67.50;101120.75;5052443;28;20204;-66
2021/03/09 08:13:26;;;;;;;8.20;3.33;;;;;;;1.64;66.35;101116.03;5052076;28;20694;-66
2021/03/09 08:16:30;;;;;;;2.00;0.83;;;;;;;1.73;66.44;101110.50;5054215;28;20670;-66
2021/03/09 08:19:04;;;;;;;2.50;1.57;;;;;;;1.64;66.67;101100.16;5046583;28;20312;-66
2021/03/09 08:21:56;;;;;;;9.03;5.77;;;;;;;1.77;66.09;101113.03;5054585;28;20641;-65
2021/03/09 08:24:54;;;;;;;1.47;1.37;;;;;;;1.79;66.09;101094.44;5052911;28;20232;-69
2021/03/09 08:27:43;;;;;;;2.40;1.40;;;;;;;1.77;66.54;101091.84;5046926;28;20235;-67
2021/03/09 08:30:29;;;;;;;4.13;1.07;;;;;;;1.77;67.14;101090.97;5052506;28;20211;-67
2021/03/09 08:33:24;;;;;;;2.00;0.70;;;;;;;1.74;67.28;101078.69;5053604;28;20208;-66
2021/03/09 08:35:54;;;;;;;2.50;1.77;;;;;;;1.80;67.04;101085.59;5034670;28;20209;-68
2021/03/09 08:38:25;;;;;;;1.73;1.50;;;;;;;1.77;67.98;101080.38;5051290;28;20220;-67
2021/03/09 08:41:07;;;;;;;4.10;0.90;;;;;;;1.87;67.17;101076.59;5051362;28;20204;-67
2021/03/09 08:43:36;;;;;;;2.43;1.60;;;;;;;2.02;66.37;101077.97;5057513;28;20208;-67
2021/03/09 08:46:06;;;;;;;1.60;1.30;;;;;;;2.11;65.69;101078.56;5048658;28;20556;-68
2021/03/09 08:48:52;;;;;;;2.10;1.17;;;;;;;2.18;65.46;101077.50;5053110;28;20197;-67
2021/03/09 08:51:47;;;;;;;2.27;0.93;;;;;;;2.22;65.26;101077.41;5058418;28;20203;-67
2021/03/09 08:54:19;;;;;;;5.03;0.93;;;;;;;2.15;65.94;101077.59;5051387;28;20566;-67
2021/03/09 08:56:46;;;;;;;0.70;0.60;;;;;;;2.06;66.73;101075.19;5034602;28;20293;-67
2021/03/09 08:59:14;;;;;;;10.37;1.73;;;;;;;2.08;66.75;101076.00;5047630;28;20738;-68
2021/03/09 09:01:42;;;;;;;1.53;0.97;;;;;;;1.99;66.56;101057.72;5054271;28;20303;-67
2021/03/09 09:04:20;;;;;;;4.73;0.90;;;;;;;2.17;66.34;101074.91;5055425;28;20208;-68
2021/03/09 09:06:47;;;;;;;1.90;0.80;;;;;;;2.21;66.19;101080.97;5056591;28;20211;-67
2021/03/09 09:09:30;;;;;;;2.37;0.97;;;;;;;2.22;66.47;101077.41;5036891;28;20200;-67
2021/03/09 09:11:57;;;;;;;3.80;1.00;;;;;;;2.16;66.44;101081.13;5056560;28;20207;-67
2021/03/09 09:14:26;;;;;;;5.27;1.33;;;;;;;2.14;66.40;101086.47;5054641;28;20298;-67
2021/03/09 09:16:54;;;;;;;1.30;0.80;;;;;;;2.18;66.50;101096.06;5062726;28;20212;-67
2021/03/09 09:19:22;;;;;;;3.23;1.27;;;;;;;2.17;66.55;101096.09;5054029;28;20208;-67
2021/03/09 09:21:50;;;;;;;1.00;1.00;;;;;;;2.17;66.46;101091.66;5054489;28;20202;-67
2021/03/09 09:24:23;;;;;;;5.47;1.20;;;;;;;2.24;66.59;101097.66;5058120;28;20697;-67
2021/03/09 09:26:59;;;;;;;4.57;1.17;;;;;;;2.28;66.19;101095.78;5053953;28;20237;-67
2021/03/09 09:29:27;;;;;;;1.50;1.13;;;;;;;2.09;65.91;101053.03;5055996;28;20215;-67
2021/03/09 09:31:59;;;;;;;2.40;1.30;;;;;;;2.12;66.08;101064.41;5055118;28;20231;-67
2021/03/09 09:34:34;;;;;;;1.17;1.00;;;;;;;2.34;65.81;101093.81;5051838;28;20629;-67
2021/03/09 09:37:10;;;;;;;3.00;1.67;;;;;;;2.34;66.13;101087.66;5036525;28;20262;-67
2021/03/09 09:39:37;;;;;;;1.10;1.00;;;;;;;2.30;66.25;101075.41;5056390;28;20751;-67
2021/03/09 09:42:12;;;;;;;1.73;1.10;;;;;;;2.40;66.52;101092.78;5058208;28;20197;-67
2021/03/09 09:44:39;;;;;;;1.33;1.20;;;;;;;2.46;66.33;101090.84;5055273;28;20548;-67
2021/03/09 09:47:10;;;;;;;135.10;54.57;;;;;;;2.49;66.08;101079.28;5050180;28;20200;-67
2021/03/09 09:49:39;;;;;;;16.83;7.80;;;;;;;2.58;66.20;101080.78;5052622;28;20197;-67
2021/03/09 09:52:14;;;;;;;4.60;3.77;;;;;;;2.63;66.81;101092.13;5054640;28;20200;-67
2021/03/09 09:54:51;;;;;;;3.37;1.80;;;;;;;2.68;66.99;101088.41;5052439;28;20216;-67
2021/03/09 09:57:20;;;;;;;5.60;2.10;;;;;;;2.70;67.06;101081.28;5057479;28;20283;-67
2021/03/09 09:59:48;;;;;;;2.40;1.17;;;;;;;2.66;67.28;101068.16;5035442;28;20352;-67
2021/03/09 10:02:20;;;;;;;1.60;1.10;;;;;;;2.78;66.72;101083.72;5053511;28;20208;-67
2021/03/09 10:04:51;;;;;;;1.53;1.07;;;;;;;2.78;66.92;101086.38;5053859;28;20241;-67
2021/03/09 10:07:20;;;;;;;2.63;1.30;;;;;;;2.92;66.25;101096.56;5051993;28;20226;-67
2021/03/09 10:10:07;;;;;;;1.13;1.07;;;;;;;2.93;66.07;101080.59;5053517;28;20683;-67
2021/03/09 10:12:44;;;;;;;0.93;0.63;;;;;;;3.07;65.54;101096.09;5057967;28;20199;-67
2021/03/09 10:15:12;;;;;;;0.70;0.70;;;;;;;3.11;66.12;101103.03;5056665;28;20201;-67
2021/03/09 10:17:40;;;;;;;1.83;1.00;;;;;;;3.16;66.13;101098.44;5048052;28;20229;-67
2021/03/09 10:20:22;;;;;;;1.10;1.00;;;;;;;3.24;64.97;101104.38;5053144;28;20267;-67
2021/03/09 10:22:51;;;;;;;0.70;0.70;;;;;;;3.22;66.06;101098.25;5060395;28;20213;-67
2021/03/09 10:25:19;;;;;;;1.50;1.30;;;;;;;3.30;65.10;101098.00;5053891;28;20227;-67
2021/03/09 10:27:46;;;;;;;0.90;0.90;;;;;;;3.34;65.71;101104.94;5051391;28;20273;-67
2021/03/09 10:30:16;;;;;;;2.13;0.90;;;;;;;3.30;65.14;101077.63;5069514;28;20577;-67
2021/03/09 10:32:52;;;;;;;1.93;1.07;;;;;;;3.18;63.47;101047.97;5066524;28;20616;-67
2021/03/09 10:35:20;;;;;;;0.40;0.40;;;;;;;3.49;64.14;101109.75;5043391;28;20236;-68
2021/03/09 10:37:47;;;;;;;0.83;0.73;;;;;;;3.45;64.82;101107.25;5058820;28;20253;-66
2021/03/09 10:40:16;;;;;;;1.23;0.60;;;;;;;3.53;64.83;101100.78;5051986;28;20491;-67
2021/03/09 10:42:50;;;;;;;3.03;0.63;;;;;;;3.59;64.19;101110.31;5058182;28;20735;-66
2021/03/09 10:45:28;;;;;;;0.43;0.43;;;;;;;3.53;64.57;101115.84;5063297;28;20210;-66
2021/03/09 10:47:59;;;;;;;0.60;0.50;;;;;;;3.54;64.28;101114.91;5053219;28;20568;-67
2021/03/09 10:50:28;;;;;;;0.83;0.40;;;;;;;3.54;64.52;101114.91;5054518;28;20213;-67
2021/03/09 10:52:56;;;;;;;3.50;0.73;;;;;;;3.54;64.78;101102.50;5054469;28;20193;-66
2021/03/09 10:55:23;;;;;;;0.40;0.40;;;;;;;3.57;64.49;101112.16;5053397;28;20207;-67
2021/03/09 10:57:52;;;;;;;2.27;0.53;;;;;;;3.64;64.71;101103.06;5051786;28;20499;-67
2021/03/09 11:00:22;;;;;;;1.60;0.53;;;;;;;3.74;63.84;101093.88;5050991;28;20198;-66
2021/03/09 11:02:49;;;;;;;0.63;0.40;;;;;;;3.78;64.20;101099.97;5058750;28;20328;-67
2021/03/09 11:05:18;;;;;;;0.70;0.70;;;;;;;3.81;64.46;101097.19;5056461;28;20651;-67
2021/03/09 11:07:45;;;;;;;0.63;0.40;;;;;;;3.85;64.27;101091.72;5060773;28;20729;-67
2021/03/09 11:10:14;;;;;;;1.53;0.80;;;;;;;3.98;64.26;101094.81;5063965;28;20204;-67
2021/03/09 11:12:41;;;;;;;4.37;0.60;;;;;;;3.95;64.17;101098.44;5060974;28;20725;-67
2021/03/09 11:15:09;;;;;;;4.07;1.07;;;;;;;3.85;64.25;101102.34;5051748;28;20305;-67
2021/03/09 11:17:37;;;;;;;0.50;0.50;;;;;;;3.89;64.26;101109.28;5065185;28;20672;-67
2021/03/09 11:20:07;;;;;;;0.40;0.40;;;;;;;3.95;64.41;101109.06;5054178;28;20267;-67
2021/03/09 11:22:36;;;;;;;6.13;0.50;;;;;;;3.96;64.22;101115.25;5056617;28;20198;-67
2021/03/09 11:25:22;;;;;;;0.40;0.40;;;;;;;3.91;63.34;101074.69;5063613;28;20211;-66
2021/03/09 11:27:49;;;;;;;0.97;0.97;;;;;;;4.03;63.86;101112.34;5034058;28;20236;-67
2021/03/09 11:30:17;;;;;;;1.57;0.60;;;;;;;4.05;63.53;101115.81;5062036;28;20276;-66
2021/03/09 11:32:44;;;;;;;1.70;0.70;;;;;;;4.05;63.54;101099.00;5063550;28;20221;-66
2021/03/09 11:35:12;;;;;;;0.40;0.40;;;;;;;4.05;63.96;101106.97;5066226;28;20258;-66
2021/03/09 11:37:40;;;;;;;1.17;0.53;;;;;;;4.09;64.12;101105.09;5063853;28;20224;-66
2021/03/09 11:40:09;;;;;;;158.93;104.47;;;;;;;4.05;64.52;101099.00;5056180;28;20204;-66
2021/03/09 11:42:36;;;;;;;378.57;143.63;;;;;;;4.12;64.35;101104.97;5057916;28;20215;-66
2021/03/09 11:45:06;;;;;;;35.43;15.90;;;;;;;4.02;64.61;101081.38;5049372;28;20202;-67